Time;durP1;ratioP1;P1;durP2;ratioP2;P2;SDS_P1;SDS_P2;PMS_P1;PMS_P2;Temp;Humidity;BMP_temperature;BMP_pressure;BME280_temperature;BME280_humidity;BME280_pressure;Samples;Min_cycle;Max_cycle;Signal;HPM_P1;HPM_P2
2024/01/31 00:02:04;;;;;;;9.77;2.30;;;;;;;;;;5074235;28;20246;-27
2024/01/31 00:04:29;;;;;;;11.73;2.77;;;;;;;;;;5074898;28;20254;-27
2024/01/31 00:06:55;;;;;;;8.55;2.13;;;;;;;;;;5074317;28;20247;-27
2024/01/31 00:09:20;;;;;;;6.55;2.00;;;;;;;;;;5074455;28;20130;-27
2024/01/31 00:11:45;;;;;;;7.40;1.80;;;;;;;;;;5074595;28;20394;-27
2024/01/31 00:14:13;;;;;;;7.88;1.95;;;;;;;;;;5074156;28;20353;-27
2024/01/31 00:16:38;;;;;;;6.00;1.60;;;;;;;;;;5074411;28;20008;-28
2024/01/31 00:19:03;;;;;;;7.22;1.60;;;;;;;;;;5074284;28;20032;-27
2024/01/31 00:21:29;;;;;;;6.30;1.80;;;;;;;;;;5073999;28;20456;-27
2024/01/31 00:23:54;;;;;;;7.47;1.60;;;;;;;;;;5073959;28;20255;-29
2024/01/31 00:26:19;;;;;;;6.80;1.48;;;;;;;;;;5073904;28;20345;-27
2024/01/31 00:28:44;;;;;;;7.00;1.52;;;;;;;;;;5074364;28;20030;-28
2024/01/31 00:31:11;;;;;;;5.70;1.37;;;;;;;;;;5074165;28;20017;-27
2024/01/31 00:33:36;;;;;;;11.32;2.05;;;;;;;;;;5074079;28;20617;-27
2024/01/31 00:36:01;;;;;;;8.90;1.92;;;;;;;;;;5073749;28;20040;-26
2024/01/31 00:38:26;;;;;;;6.47;1.52;;;;;;;;;;5073780;28;20054;-27
2024/01/31 00:40:52;;;;;;;5.97;1.80;;;;;;;;;;5073750;28;20024;-26
2024/01/31 00:43:17;;;;;;;2.88;1.58;;;;;;;;;;5074225;28;20282;-27
2024/01/31 00:45:42;;;;;;;5.67;1.80;;;;;;;;;;5073696;28;20452;-27
2024/01/31 00:48:07;;;;;;;7.63;2.10;;;;;;;;;;5073779;28;20282;-27
2024/01/31 00:50:32;;;;;;;6.70;1.90;;;;;;;;;;5073604;28;20468;-27
2024/01/31 00:52:57;;;;;;;6.70;2.40;;;;;;;;;;5073603;28;20253;-26
2024/01/31 00:55:23;;;;;;;9.93;2.30;;;;;;;;;;5073890;28;20254;-27
2024/01/31 00:57:48;;;;;;;7.00;2.30;;;;;;;;;;5074079;28;20305;-27
2024/01/31 01:00:14;;;;;;;7.72;2.33;;;;;;;;;;5073066;28;20254;-26
2024/01/31 01:02:40;;;;;;;7.05;2.70;;;;;;;;;;5073214;28;20048;-27
2024/01/31 01:05:06;;;;;;;7.03;2.13;;;;;;;;;;5073451;28;20069;-27
2024/01/31 01:07:31;;;;;;;7.78;2.85;;;;;;;;;;5073339;28;20430;-27
2024/01/31 01:09:56;;;;;;;9.10;2.30;;;;;;;;;;5073420;28;20021;-27
2024/01/31 01:12:22;;;;;;;3.53;1.93;;;;;;;;;;5073514;28;20262;-28
2024/01/31 01:14:47;;;;;;;6.03;2.40;;;;;;;;;;5073362;28;20255;-27
2024/01/31 01:17:12;;;;;;;5.90;2.10;;;;;;;;;;5073902;28;20055;-27
2024/01/31 01:19:37;;;;;;;9.17;2.70;;;;;;;;;;5073232;28;20294;-27
2024/01/31 01:22:04;;;;;;;6.65;2.30;;;;;;;;;;5074376;28;20243;-27
2024/01/31 01:24:29;;;;;;;5.10;2.38;;;;;;;;;;5073531;28;20087;-27
2024/01/31 01:26:54;;;;;;;8.88;2.85;;;;;;;;;;5073531;28;20525;-27
2024/01/31 01:29:20;;;;;;;7.23;2.63;;;;;;;;;;5073130;28;20388;-28
2024/01/31 01:31:45;;;;;;;9.30;3.30;;;;;;;;;;5073455;28;20353;-27
2024/01/31 01:34:11;;;;;;;5.80;2.90;;;;;;;;;;5073172;28;20084;-27
2024/01/31 01:36:36;;;;;;;9.70;3.30;;;;;;;;;;5073147;28;20247;-27
2024/01/31 01:39:01;;;;;;;8.13;3.10;;;;;;;;;;5073069;28;20013;-27
2024/01/31 01:41:26;;;;;;;6.55;2.90;;;;;;;;;;5073346;28;20025;-28
2024/01/31 01:43:52;;;;;;;7.70;3.20;;;;;;;;;;5073108;28;20017;-28
2024/01/31 01:46:21;;;;;;;7.28;2.80;;;;;;;;;;5073353;28;20463;-28
2024/01/31 01:48:47;;;;;;;9.30;3.08;;;;;;;;;;5073180;28;20048;-28
2024/01/31 01:51:17;;;;;;;11.77;3.28;;;;;;;;;;5073050;28;20498;-28
2024/01/31 01:53:43;;;;;;;6.97;2.92;;;;;;;;;;5072961;28;20016;-28
2024/01/31 01:56:08;;;;;;;8.15;3.35;;;;;;;;;;5073255;28;20009;-28
2024/01/31 01:58:35;;;;;;;5.68;2.80;;;;;;;;;;5074009;28;20392;-28
2024/01/31 02:01:00;;;;;;;7.68;2.63;;;;;;;;;;5072963;28;20469;-27
2024/01/31 02:03:27;;;;;;;10.50;2.70;;;;;;;;;;5072868;28;20060;-28
2024/01/31 02:05:52;;;;;;;9.50;3.13;;;;;;;;;;5072907;28;20024;-28
2024/01/31 02:08:17;;;;;;;7.18;2.83;;;;;;;;;;5072751;28;20103;-27
2024/01/31 02:10:43;;;;;;;6.10;2.88;;;;;;;;;;5072857;28;20023;-28
2024/01/31 02:13:08;;;;;;;6.20;3.38;;;;;;;;;;5074054;28;20482;-27
2024/01/31 02:15:33;;;;;;;6.68;2.50;;;;;;;;;;5076459;28;20019;-28
2024/01/31 02:17:58;;;;;;;7.15;3.15;;;;;;;;;;5076440;28;20028;-28
2024/01/31 02:20:24;;;;;;;8.87;2.93;;;;;;;;;;5076371;28;20414;-28
2024/01/31 02:22:50;;;;;;;6.20;2.70;;;;;;;;;;5076612;28;20305;-28
2024/01/31 02:25:15;;;;;;;6.88;2.80;;;;;;;;;;5076318;28;20375;-28
2024/01/31 02:27:40;;;;;;;5.67;2.47;;;;;;;;;;5074920;28;20025;-28
2024/01/31 02:30:06;;;;;;;5.13;2.28;;;;;;;;;;5076172;28;20291;-28
2024/01/31 02:32:31;;;;;;;8.63;2.30;;;;;;;;;;5076716;28;20125;-28
2024/01/31 02:34:56;;;;;;;9.82;2.63;;;;;;;;;;5076112;28;20028;-28
2024/01/31 02:37:22;;;;;;;6.95;2.53;;;;;;;;;;5076339;28;20024;-28
2024/01/31 02:39:47;;;;;;;8.00;2.50;;;;;;;;;;5076552;28;20074;-28
2024/01/31 02:42:14;;;;;;;6.30;2.60;;;;;;;;;;5076256;28;20602;-28
2024/01/31 02:44:39;;;;;;;7.47;2.80;;;;;;;;;;5076249;28;20478;-28
2024/01/31 02:47:04;;;;;;;9.53;2.40;;;;;;;;;;5076425;28;20111;-28
2024/01/31 02:49:29;;;;;;;8.73;2.40;;;;;;;;;;5075790;28;20275;-28
2024/01/31 02:51:55;;;;;;;7.00;2.60;;;;;;;;;;5075852;28;20016;-28
2024/01/31 02:54:20;;;;;;;7.30;2.88;;;;;;;;;;5075951;28;20341;-28
2024/01/31 02:56:45;;;;;;;6.70;2.50;;;;;;;;;;5075734;28;20020;-28
2024/01/31 02:59:10;;;;;;;9.00;2.72;;;;;;;;;;5075706;28;20251;-28
2024/01/31 03:01:42;;;;;;;11.52;2.42;;;;;;;;;;5075960;28;20033;-28
2024/01/31 03:04:07;;;;;;;8.40;2.70;;;;;;;;;;5075445;28;20055;-28
2024/01/31 03:06:32;;;;;;;6.20;2.50;;;;;;;;;;5075605;28;20013;-28
2024/01/31 03:08:57;;;;;;;7.13;2.75;;;;;;;;;;5075674;28;20310;-28
2024/01/31 03:11:23;;;;;;;8.43;2.23;;;;;;;;;;5075842;28;20111;-27
2024/01/31 03:13:50;;;;;;;7.17;1.90;;;;;;;;;;5075416;28;20602;-28
2024/01/31 03:16:15;;;;;;;9.40;2.03;;;;;;;;;;5075575;28;20258;-28
2024/01/31 03:18:40;;;;;;;7.03;1.90;;;;;;;;;;5075351;28;20475;-28
2024/01/31 03:21:06;;;;;;;8.70;2.08;;;;;;;;;;5075543;28;20309;-28
2024/01/31 03:23:31;;;;;;;6.30;2.10;;;;;;;;;;5074766;28;20375;-28
2024/01/31 03:25:56;;;;;;;6.63;1.70;;;;;;;;;;5075754;28;20024;-28
2024/01/31 03:28:23;;;;;;;14.05;2.30;;;;;;;;;;5075004;28;20777;-28
2024/01/31 03:30:49;;;;;;;7.03;2.15;;;;;;;;;;5075347;28;20048;-28
2024/01/31 03:33:14;;;;;;;3.80;1.70;;;;;;;;;;5075602;28;20035;-28
2024/01/31 03:35:39;;;;;;;5.13;1.83;;;;;;;;;;5074993;28;20374;-28
2024/01/31 03:38:04;;;;;;;5.27;1.90;;;;;;;;;;5075500;28;20267;-28
2024/01/31 03:40:29;;;;;;;6.80;2.10;;;;;;;;;;5074878;28;20266;-28
2024/01/31 03:42:54;;;;;;;10.38;2.30;;;;;;;;;;5075448;28;20365;-28
2024/01/31 03:45:20;;;;;;;7.82;2.17;;;;;;;;;;5074795;28;20063;-28
2024/01/31 03:47:45;;;;;;;9.63;2.20;;;;;;;;;;5075135;28;20028;-28
2024/01/31 03:50:10;;;;;;;8.77;2.10;;;;;;;;;;5074653;28;20251;-28
2024/01/31 03:52:36;;;;;;;4.55;2.35;;;;;;;;;;5074906;28;20017;-28
2024/01/31 03:55:01;;;;;;;9.13;2.03;;;;;;;;;;5074757;28;20024;-28
2024/01/31 03:57:26;;;;;;;7.72;2.17;;;;;;;;;;5074705;28;20368;-28
2024/01/31 03:59:51;;;;;;;10.50;2.40;;;;;;;;;;5074745;28;20020;-28
2024/01/31 04:02:16;;;;;;;16.45;2.45;;;;;;;;;;5072885;28;20258;-28
2024/01/31 04:04:42;;;;;;;7.30;2.20;;;;;;;;;;5074864;28;20051;-28
2024/01/31 04:07:07;;;;;;;7.00;1.70;;;;;;;;;;5074789;28;20298;-28
2024/01/31 04:09:32;;;;;;;4.33;1.70;;;;;;;;;;5074143;28;20765;-28
2024/01/31 04:11:59;;;;;;;4.75;2.20;;;;;;;;;;5074175;28;20298;-28
2024/01/31 04:14:24;;;;;;;7.22;1.80;;;;;;;;;;5074495;28;20021;-27
2024/01/31 04:16:49;;;;;;;7.80;1.95;;;;;;;;;;5074175;28;20051;-28
2024/01/31 04:19:14;;;;;;;7.20;1.80;;;;;;;;;;5074422;28;20020;-28
2024/01/31 04:21:39;;;;;;;6.33;1.80;;;;;;;;;;5074085;28;20254;-28
2024/01/31 04:24:04;;;;;;;9.53;2.17;;;;;;;;;;5074032;28;20337;-28
2024/01/31 04:26:30;;;;;;;5.45;2.42;;;;;;;;;;5074219;28;20251;-28
2024/01/31 04:28:55;;;;;;;5.40;2.00;;;;;;;;;;5073916;28;20077;-28
2024/01/31 04:31:20;;;;;;;8.17;1.90;;;;;;;;;;5074174;28;20251;-27
2024/01/31 04:33:45;;;;;;;7.13;2.13;;;;;;;;;;5074429;28;20290;-28
2024/01/31 04:36:10;;;;;;;9.70;1.90;;;;;;;;;;5073373;28;20246;-28
2024/01/31 04:38:36;;;;;;;8.52;1.88;;;;;;;;;;5073795;28;20430;-28
2024/01/31 04:41:01;;;;;;;4.95;1.80;;;;;;;;;;5073999;28;20028;-28
2024/01/31 04:43:27;;;;;;;8.68;2.40;;;;;;;;;;5073997;28;20021;-28
2024/01/31 04:45:52;;;;;;;6.33;1.97;;;;;;;;;;5073697;28;20024;-28
2024/01/31 04:48:17;;;;;;;9.00;1.83;;;;;;;;;;5073833;28;20289;-28
2024/01/31 04:50:43;;;;;;;7.72;2.10;;;;;;;;;;5073588;28;20051;-28
2024/01/31 04:53:08;;;;;;;6.90;2.10;;;;;;;;;;5073507;28;20031;-28
2024/01/31 04:55:33;;;;;;;7.77;2.10;;;;;;;;;;5073861;28;20031;-28
2024/01/31 04:57:58;;;;;;;6.18;1.85;;;;;;;;;;5073537;28;20660;-28
2024/01/31 05:00:24;;;;;;;5.70;2.28;;;;;;;;;;5073514;28;20047;-28
2024/01/31 05:02:50;;;;;;;9.85;2.30;;;;;;;;;;5073308;28;20053;-28
2024/01/31 05:05:15;;;;;;;11.18;2.53;;;;;;;;;;5073608;28;20145;-28
2024/01/31 05:07:40;;;;;;;6.47;2.22;;;;;;;;;;5073655;28;20048;-28
2024/01/31 05:10:06;;;;;;;5.20;2.30;;;;;;;;;;5073413;28;20021;-28
2024/01/31 05:12:31;;;;;;;4.82;2.38;;;;;;;;;;5073473;28;20257;-28
2024/01/31 05:14:56;;;;;;;7.40;2.30;;;;;;;;;;5073432;28;20472;-28
2024/01/31 05:17:22;;;;;;;11.50;2.53;;;;;;;;;;5073865;28;20253;-28
2024/01/31 05:19:47;;;;;;;6.43;2.30;;;;;;;;;;5073598;28;20046;-28
2024/01/31 05:22:12;;;;;;;8.27;2.30;;;;;;;;;;5073533;28;20036;-28
2024/01/31 05:24:39;;;;;;;9.13;2.60;;;;;;;;;;5073194;28;20250;-27
2024/01/31 05:27:05;;;;;;;6.72;2.60;;;;;;;;;;5073241;28;20055;-28
2024/01/31 05:29:30;;;;;;;9.23;2.70;;;;;;;;;;5073445;28;20048;-28
2024/01/31 05:31:55;;;;;;;5.63;2.33;;;;;;;;;;5073474;28;20025;-28
2024/01/31 05:34:22;;;;;;;7.50;2.85;;;;;;;;;;5073650;28;20028;-28
2024/01/31 05:36:47;;;;;;;8.57;2.80;;;;;;;;;;5073458;28;20012;-28
2024/01/31 05:39:12;;;;;;;6.43;2.70;;;;;;;;;;5073432;28;20017;-28
2024/01/31 05:41:40;;;;;;;5.03;2.40;;;;;;;;;;5073619;28;20319;-28
2024/01/31 05:44:05;;;;;;;4.63;2.40;;;;;;;;;;5073649;28;20330;-28
2024/01/31 05:46:32;;;;;;;7.90;2.63;;;;;;;;;;5073543;28;20151;-28
2024/01/31 05:48:57;;;;;;;4.65;2.70;;;;;;;;;;5076866;28;20278;-28
2024/01/31 05:51:23;;;;;;;4.63;2.63;;;;;;;;;;5077209;28;20100;-28
2024/01/31 05:53:48;;;;;;;4.68;2.58;;;;;;;;;;5076868;28;20174;-28
2024/01/31 05:56:15;;;;;;;4.80;2.60;;;;;;;;;;5076898;28;20020;-28
2024/01/31 05:58:41;;;;;;;7.35;2.60;;;;;;;;;;5077033;28;20254;-28
2024/01/31 06:01:06;;;;;;;4.80;3.00;;;;;;;;;;5076736;28;20501;-29
2024/01/31 06:03:31;;;;;;;4.23;2.60;;;;;;;;;;5075359;28;20309;-28
2024/01/31 06:05:58;;;;;;;5.47;2.77;;;;;;;;;;5076715;28;20717;-28
2024/01/31 06:08:24;;;;;;;4.57;2.85;;;;;;;;;;5076808;28;20664;-28
2024/01/31 06:10:53;;;;;;;4.50;2.92;;;;;;;;;;5076544;28;20016;-28
2024/01/31 06:13:18;;;;;;;5.45;2.78;;;;;;;;;;5076352;28;20070;-28
2024/01/31 06:15:43;;;;;;;4.60;2.70;;;;;;;;;;5077051;28;20021;-27
2024/01/31 06:18:09;;;;;;;5.35;3.08;;;;;;;;;;5076388;28;20028;-28
2024/01/31 06:20:40;;;;;;;4.18;3.03;;;;;;;;;;5076341;28;20033;-28
2024/01/31 06:23:06;;;;;;;5.00;2.80;;;;;;;;;;5076669;28;20482;-28
2024/01/31 06:25:31;;;;;;;7.47;2.97;;;;;;;;;;5076558;28;20020;-28
2024/01/31 06:27:56;;;;;;;5.13;3.03;;;;;;;;;;5076210;28;20513;-28
2024/01/31 06:30:30;;;;;;;9.40;4.60;;;;;;;;;;5076479;28;20265;-28
2024/01/31 06:33:05;;;;;;;6.05;3.70;;;;;;;;;;5076076;28;20253;-28
2024/01/31 06:35:30;;;;;;;5.45;3.75;;;;;;;;;;5076366;28;20345;-28
2024/01/31 06:37:55;;;;;;;5.73;3.03;;;;;;;;;;5076029;28;20023;-28
2024/01/31 06:40:20;;;;;;;6.10;3.40;;;;;;;;;;5076004;28;20282;-28
2024/01/31 06:42:45;;;;;;;5.70;3.25;;;;;;;;;;5076472;28;20369;-28
2024/01/31 06:45:11;;;;;;;4.83;3.50;;;;;;;;;;5075851;28;20503;-28
2024/01/31 06:47:36;;;;;;;5.50;3.70;;;;;;;;;;5074554;28;20296;-28
2024/01/31 06:50:01;;;;;;;5.93;3.63;;;;;;;;;;5075810;28;20730;-27
2024/01/31 06:52:26;;;;;;;5.50;3.92;;;;;;;;;;5076019;28;20293;-28
2024/01/31 06:54:51;;;;;;;6.50;4.00;;;;;;;;;;5075725;28;20047;-28
2024/01/31 06:57:16;;;;;;;6.77;4.23;;;;;;;;;;5075677;28;20672;-27
2024/01/31 06:59:42;;;;;;;7.40;4.30;;;;;;;;;;5074094;28;20267;-28
2024/01/31 07:02:07;;;;;;;7.07;4.77;;;;;;;;;;5075048;28;20618;-28
2024/01/31 07:04:32;;;;;;;7.83;5.00;;;;;;;;;;5074066;28;20326;-28
2024/01/31 07:06:57;;;;;;;7.77;5.13;;;;;;;;;;5075330;28;20749;-28
2024/01/31 07:09:22;;;;;;;10.33;5.37;;;;;;;;;;5075207;28;20278;-28
2024/01/31 07:11:47;;;;;;;9.05;5.72;;;;;;;;;;5074447;28;20734;-28
2024/01/31 07:14:13;;;;;;;7.95;5.80;;;;;;;;;;5073512;28;20009;-28
2024/01/31 07:16:38;;;;;;;13.70;6.20;;;;;;;;;;5073167;28;20058;-28
2024/01/31 07:19:03;;;;;;;9.30;6.23;;;;;;;;;;5074253;28;20017;-28
2024/01/31 07:21:29;;;;;;;7.78;5.60;;;;;;;;;;5073410;28;20271;-28
2024/01/31 07:23:54;;;;;;;9.25;6.07;;;;;;;;;;5075687;28;20029;-28
2024/01/31 07:26:23;;;;;;;9.30;6.32;;;;;;;;;;5073881;28;20043;-28
2024/01/31 07:28:48;;;;;;;9.73;6.60;;;;;;;;;;5074866;28;20447;-28
2024/01/31 07:31:14;;;;;;;12.05;6.85;;;;;;;;;;5075094;28;20040;-28
2024/01/31 07:33:39;;;;;;;9.40;6.30;;;;;;;;;;5073774;28;20700;-28
2024/01/31 07:36:04;;;;;;;12.30;7.10;;;;;;;;;;5074712;28;20337;-28
2024/01/31 07:38:30;;;;;;;11.57;6.70;;;;;;;;;;5075138;28;20285;-28
2024/01/31 07:40:55;;;;;;;11.95;7.00;;;;;;;;;;5075121;28;20023;-28
2024/01/31 07:43:20;;;;;;;12.55;7.75;;;;;;;;;;5074807;28;20321;-28
2024/01/31 07:45:45;;;;;;;13.37;8.50;;;;;;;;;;5073343;28;20464;-28
2024/01/31 07:48:10;;;;;;;12.57;8.00;;;;;;;;;;5074473;28;20404;-28
2024/01/31 07:50:36;;;;;;;14.97;7.90;;;;;;;;;;5074809;28;20259;-28
2024/01/31 07:53:02;;;;;;;12.93;8.20;;;;;;;;;;5074606;28;20330;-28
2024/01/31 07:55:27;;;;;;;15.93;8.57;;;;;;;;;;5073555;28;20706;-28
2024/01/31 07:57:52;;;;;;;14.37;8.40;;;;;;;;;;5074440;28;20048;-28
2024/01/31 08:00:18;;;;;;;13.32;8.35;;;;;;;;;;5074857;28;20251;-28
2024/01/31 08:02:43;;;;;;;12.95;8.57;;;;;;;;;;5074724;28;20484;-28
2024/01/31 08:05:09;;;;;;;15.30;8.57;;;;;;;;;;5074381;28;20028;-28
2024/01/31 08:07:34;;;;;;;16.60;8.50;;;;;;;;;;5074291;28;20261;-28
2024/01/31 08:09:59;;;;;;;18.95;8.55;;;;;;;;;;5073450;28;20357;-28
2024/01/31 08:12:24;;;;;;;13.85;8.48;;;;;;;;;;5073871;28;20009;-28
2024/01/31 08:14:50;;;;;;;14.93;8.80;;;;;;;;;;5074780;28;20040;-28
2024/01/31 08:17:16;;;;;;;11.40;8.23;;;;;;;;;;5074095;28;20300;-28
2024/01/31 08:19:41;;;;;;;14.13;8.45;;;;;;;;;;5074617;28;20066;-28
2024/01/31 08:22:06;;;;;;;12.93;8.00;;;;;;;;;;5074116;28;20024;-28
2024/01/31 08:24:31;;;;;;;12.88;7.65;;;;;;;;;;5074032;28;20039;-28
2024/01/31 08:26:57;;;;;;;13.50;7.23;;;;;;;;;;5073982;28;20039;-28
2024/01/31 08:29:22;;;;;;;12.77;7.07;;;;;;;;;;5074139;28;20362;-28
2024/01/31 08:31:47;;;;;;;13.93;7.15;;;;;;;;;;5074188;28;20009;-28
2024/01/31 08:34:13;;;;;;;11.52;6.50;;;;;;;;;;5074124;28;20021;-28
2024/01/31 08:36:39;;;;;;;10.95;6.57;;;;;;;;;;5073973;28;20023;-33
2024/01/31 08:39:04;;;;;;;10.07;6.38;;;;;;;;;;5074098;28;20050;-28
2024/01/31 08:41:29;;;;;;;14.27;6.35;;;;;;;;;;5073923;28;20372;-28
2024/01/31 08:43:55;;;;;;;12.97;6.30;;;;;;;;;;5074295;28;20025;-28
2024/01/31 08:46:20;;;;;;;12.02;6.40;;;;;;;;;;5073669;28;20296;-28
2024/01/31 08:48:46;;;;;;;9.00;5.60;;;;;;;;;;5073880;28;20070;-28
2024/01/31 08:51:11;;;;;;;8.85;5.70;;;;;;;;;;5073508;28;20781;-27
2024/01/31 08:53:37;;;;;;;10.57;6.18;;;;;;;;;;5073474;28;20020;-28
2024/01/31 08:56:02;;;;;;;7.22;5.47;;;;;;;;;;5073710;28;20100;-28
2024/01/31 08:58:27;;;;;;;11.10;5.35;;;;;;;;;;5073713;28;20044;-27
2024/01/31 09:00:52;;;;;;;9.07;5.33;;;;;;;;;;5073714;28;20349;-27
2024/01/31 09:03:18;;;;;;;7.10;5.07;;;;;;;;;;5073213;28;20286;-27
2024/01/31 09:05:43;;;;;;;12.48;5.57;;;;;;;;;;5073207;28;20765;-27
2024/01/31 09:08:09;;;;;;;8.52;4.60;;;;;;;;;;5073019;28;20017;-27
2024/01/31 09:10:34;;;;;;;7.28;5.07;;;;;;;;;;5072158;28;20041;-27
2024/01/31 09:12:59;;;;;;;10.32;4.72;;;;;;;;;;5072330;28;20016;-27
2024/01/31 09:15:24;;;;;;;8.50;5.68;;;;;;;;;;5071993;28;20017;-27
2024/01/31 09:17:51;;;;;;;7.13;4.70;;;;;;;;;;5073832;28;20025;-28
2024/01/31 09:20:16;;;;;;;8.63;4.95;;;;;;;;;;5073186;28;20263;-28
2024/01/31 09:22:42;;;;;;;8.20;5.00;;;;;;;;;;5072785;28;20019;-27
2024/01/31 09:25:10;;;;;;;8.73;4.80;;;;;;;;;;5073125;28;20799;-27
2024/01/31 09:27:35;;;;;;;9.85;6.00;;;;;;;;;;5072766;28;20024;-27
2024/01/31 09:30:01;;;;;;;8.23;4.83;;;;;;;;;;5072950;28;20430;-27
2024/01/31 09:32:26;;;;;;;6.57;4.45;;;;;;;;;;5073142;28;20292;-27
2024/01/31 09:34:51;;;;;;;10.87;4.47;;;;;;;;;;5073363;28;20016;-28
2024/01/31 09:37:16;;;;;;;6.50;4.43;;;;;;;;;;5073329;28;20251;-28
2024/01/31 09:39:42;;;;;;;8.10;4.20;;;;;;;;;;5071797;28;20020;-28
2024/01/31 09:42:07;;;;;;;7.82;4.57;;;;;;;;;;5072838;28;20412;-27
2024/01/31 09:44:32;;;;;;;10.25;4.75;;;;;;;;;;5072983;28;20016;-27
2024/01/31 09:46:58;;;;;;;7.93;4.30;;;;;;;;;;5073509;28;20020;-28
2024/01/31 09:49:24;;;;;;;11.65;4.50;;;;;;;;;;5071581;28;20035;-28
2024/01/31 09:51:53;;;;;;;10.50;4.70;;;;;;;;;;5073186;28;20100;-27
2024/01/31 09:54:18;;;;;;;7.95;4.05;;;;;;;;;;5072727;28;20479;-28
2024/01/31 09:56:44;;;;;;;6.95;4.32;;;;;;;;;;5073088;28;20012;-28
2024/01/31 09:59:09;;;;;;;7.73;4.77;;;;;;;;;;5072759;28;20402;-27
2024/01/31 10:01:35;;;;;;;8.50;4.55;;;;;;;;;;5073100;28;20266;-28
2024/01/31 10:04:00;;;;;;;7.30;4.15;;;;;;;;;;5072601;28;20057;-28
2024/01/31 10:06:39;;;;;;;7.28;4.57;;;;;;;;;;5072754;28;20066;-28
2024/01/31 10:09:16;;;;;;;7.00;4.45;;;;;;;;;;5071433;28;20074;-28
2024/01/31 10:11:45;;;;;;;6.63;4.30;;;;;;;;;;5073002;28;20119;-28
2024/01/31 10:14:11;;;;;;;16.42;5.03;;;;;;;;;;5072529;28;20020;-27
2024/01/31 10:16:36;;;;;;;8.88;4.60;;;;;;;;;;5072648;28;20012;-27
2024/01/31 10:19:02;;;;;;;8.70;5.00;;;;;;;;;;5072931;28;20384;-27
2024/01/31 10:21:27;;;;;;;8.13;4.60;;;;;;;;;;5073070;28;20277;-27
2024/01/31 10:23:59;;;;;;;6.95;4.68;;;;;;;;;;5073152;28;20020;-28
2024/01/31 10:26:25;;;;;;;45.40;28.13;;;;;;;;;;5072843;28;20028;-27
2024/01/31 10:28:51;;;;;;;12.40;6.20;;;;;;;;;;5072681;28;20029;-27
2024/01/31 10:31:50;;;;;;;10.85;5.28;;;;;;;;;;5072684;28;20572;-28
2024/01/31 10:34:16;;;;;;;10.13;5.88;;;;;;;;;;5074395;28;20044;-28
2024/01/31 10:36:42;;;;;;;16.42;6.03;;;;;;;;;;5074834;28;20016;-27
2024/01/31 10:39:09;;;;;;;9.68;6.35;;;;;;;;;;5076381;28;20375;-28
2024/01/31 10:41:35;;;;;;;15.43;6.55;;;;;;;;;;5076213;28;20411;-27
2024/01/31 10:44:02;;;;;;;18.38;6.28;;;;;;;;;;5074489;28;20020;-27
2024/01/31 10:46:28;;;;;;;15.60;6.38;;;;;;;;;;5076766;28;20078;-27
2024/01/31 10:48:53;;;;;;;15.57;7.05;;;;;;;;;;5074641;28;20036;-27
2024/01/31 10:51:19;;;;;;;12.45;6.28;;;;;;;;;;5075842;28;20486;-28
2024/01/31 10:53:44;;;;;;;13.85;6.35;;;;;;;;;;5074558;28;20012;-27
2024/01/31 10:56:09;;;;;;;12.30;6.28;;;;;;;;;;5074455;28;20023;-27
2024/01/31 10:58:35;;;;;;;13.30;6.97;;;;;;;;;;5075689;28;20059;-27
2024/01/31 11:01:03;;;;;;;12.93;6.53;;;;;;;;;;5075649;28;20059;-27
2024/01/31 11:03:29;;;;;;;12.43;6.30;;;;;;;;;;5075125;28;20136;-27
2024/01/31 11:05:54;;;;;;;14.10;5.70;;;;;;;;;;5074108;28;20056;-27
2024/01/31 11:08:20;;;;;;;14.30;6.15;;;;;;;;;;5075196;28;20119;-28
2024/01/31 11:10:45;;;;;;;11.70;5.22;;;;;;;;;;5075548;28;20023;-28
2024/01/31 11:13:10;;;;;;;17.02;6.20;;;;;;;;;;5075252;28;20025;-27
2024/01/31 11:15:36;;;;;;;10.98;5.47;;;;;;;;;;5075291;28;20387;-28
2024/01/31 11:18:04;;;;;;;32.67;13.55;;;;;;;;;;5075352;28;20020;-27
2024/01/31 11:20:30;;;;;;;11.90;5.50;;;;;;;;;;5075349;28;20155;-27
2024/01/31 11:22:57;;;;;;;12.57;5.53;;;;;;;;;;5075259;28;20070;-27
2024/01/31 11:25:26;;;;;;;10.90;5.90;;;;;;;;;;5075105;28;20017;-27
2024/01/31 11:27:53;;;;;;;13.82;6.38;;;;;;;;;;5075529;28;20028;-27
2024/01/31 11:30:18;;;;;;;15.80;6.35;;;;;;;;;;5075368;28;20024;-27
2024/01/31 11:32:44;;;;;;;15.23;6.65;;;;;;;;;;5075542;28;20016;-27
2024/01/31 11:35:09;;;;;;;15.60;7.75;;;;;;;;;;5074984;28;20028;-27
2024/01/31 11:37:34;;;;;;;13.10;6.33;;;;;;;;;;5074831;28;20070;-27
2024/01/31 11:39:59;;;;;;;13.23;6.80;;;;;;;;;;5075433;28;20342;-28
2024/01/31 11:42:24;;;;;;;17.80;7.97;;;;;;;;;;5075309;28;20262;-27
2024/01/31 11:44:50;;;;;;;16.05;8.10;;;;;;;;;;5074465;28;20271;-27
2024/01/31 11:47:15;;;;;;;13.90;6.78;;;;;;;;;;5074728;28;20050;-27
2024/01/31 11:49:41;;;;;;;19.35;8.07;;;;;;;;;;5074985;28;20028;-27
2024/01/31 11:52:06;;;;;;;15.20;7.90;;;;;;;;;;5074959;28;20552;-27
2024/01/31 11:54:31;;;;;;;15.65;8.27;;;;;;;;;;5074592;28;20019;-27
2024/01/31 11:56:56;;;;;;;18.05;9.10;;;;;;;;;;5075093;28;20016;-27
2024/01/31 11:59:22;;;;;;;16.45;8.60;;;;;;;;;;5074460;28;20380;-28
2024/01/31 12:01:47;;;;;;;17.70;8.90;;;;;;;;;;5074378;28;20056;-27
2024/01/31 12:04:12;;;;;;;18.85;8.73;;;;;;;;;;5073033;28;20059;-27
2024/01/31 12:06:38;;;;;;;19.13;9.35;;;;;;;;;;5074149;28;20026;-27
2024/01/31 12:09:04;;;;;;;22.77;10.30;;;;;;;;;;5074719;28;20025;-27
2024/01/31 12:11:31;;;;;;;23.25;10.07;;;;;;;;;;5074461;28;20274;-28
2024/01/31 12:13:56;;;;;;;17.80;9.93;;;;;;;;;;5074440;28;20066;-27
2024/01/31 12:16:21;;;;;;;18.05;10.38;;;;;;;;;;5074097;28;20008;-27
2024/01/31 12:18:57;;;;;;;19.20;10.37;;;;;;;;;;5074313;28;20422;-27
2024/01/31 12:21:22;;;;;;;22.48;9.70;;;;;;;;;;5073910;28;20262;-27
2024/01/31 12:23:47;;;;;;;18.43;10.20;;;;;;;;;;5074474;28;20013;-27
2024/01/31 12:26:13;;;;;;;23.30;9.93;;;;;;;;;;5074448;28;20339;-27
2024/01/31 12:28:41;;;;;;;24.65;10.52;;;;;;;;;;5073965;28;20769;-27
2024/01/31 12:31:06;;;;;;;22.25;9.95;;;;;;;;;;5072098;28;20020;-27
2024/01/31 12:33:31;;;;;;;16.60;9.23;;;;;;;;;;5073780;28;20518;-27
2024/01/31 12:35:56;;;;;;;17.00;8.98;;;;;;;;;;5073944;28;20299;-27
2024/01/31 12:38:22;;;;;;;28.27;9.73;;;;;;;;;;5073766;28;20016;-27
2024/01/31 12:40:47;;;;;;;13.23;7.25;;;;;;;;;;5072278;28;20691;-27
2024/01/31 12:43:12;;;;;;;15.90;7.55;;;;;;;;;;5073751;28;20032;-27
2024/01/31 12:45:37;;;;;;;12.87;7.50;;;;;;;;;;5073482;28;20383;-26
2024/01/31 12:48:03;;;;;;;15.47;8.17;;;;;;;;;;5073500;28;20278;-26
2024/01/31 12:50:28;;;;;;;16.52;8.40;;;;;;;;;;5073837;28;20254;-27
2024/01/31 12:52:53;;;;;;;14.97;8.27;;;;;;;;;;5073719;28;20012;-27
2024/01/31 12:55:19;;;;;;;14.85;8.65;;;;;;;;;;5073443;28;20265;-27
2024/01/31 12:57:44;;;;;;;15.07;7.40;;;;;;;;;;5072746;28;20042;-27
2024/01/31 13:00:10;;;;;;;14.90;8.07;;;;;;;;;;5073731;28;20020;-27
2024/01/31 13:02:35;;;;;;;19.52;8.15;;;;;;;;;;5073131;28;20463;-27
2024/01/31 13:05:00;;;;;;;13.67;7.63;;;;;;;;;;5073384;28;20012;-27
2024/01/31 13:07:25;;;;;;;18.07;7.90;;;;;;;;;;5073367;28;20330;-27
2024/01/31 13:09:50;;;;;;;13.13;8.13;;;;;;;;;;5073460;28;20348;-27
2024/01/31 13:12:16;;;;;;;13.15;7.47;;;;;;;;;;5072905;28;20266;-27
2024/01/31 13:14:41;;;;;;;12.80;7.72;;;;;;;;;;5073446;28;20020;-27
2024/01/31 13:17:06;;;;;;;10.50;6.67;;;;;;;;;;5072660;28;20021;-27
2024/01/31 13:19:31;;;;;;;13.50;7.23;;;;;;;;;;5073321;28;20427;-27
2024/01/31 13:21:56;;;;;;;10.63;6.73;;;;;;;;;;5071493;28;20270;-27
2024/01/31 13:24:21;;;;;;;11.80;6.87;;;;;;;;;;5071136;28;20255;-27
2024/01/31 13:26:47;;;;;;;13.43;6.20;;;;;;;;;;5071111;28;20274;-27
2024/01/31 13:29:12;;;;;;;10.57;6.00;;;;;;;;;;5070284;28;20317;-27
2024/01/31 13:31:38;;;;;;;10.45;5.63;;;;;;;;;;5071408;28;20013;-27
2024/01/31 13:34:03;;;;;;;8.65;6.00;;;;;;;;;;5071056;28;20412;-27
2024/01/31 13:36:28;;;;;;;8.70;5.30;;;;;;;;;;5070155;28;20082;-27
2024/01/31 13:38:54;;;;;;;12.38;5.55;;;;;;;;;;5072840;28;20480;-27
2024/01/31 13:41:22;;;;;;;10.57;5.30;;;;;;;;;;5072536;28;20353;-27
2024/01/31 13:43:47;;;;;;;10.48;5.53;;;;;;;;;;5072762;28;20111;-27
2024/01/31 13:46:12;;;;;;;8.57;5.37;;;;;;;;;;5072810;28;20056;-27
2024/01/31 13:48:37;;;;;;;8.37;5.17;;;;;;;;;;5072736;28;20754;-27
2024/01/31 13:51:03;;;;;;;11.37;5.57;;;;;;;;;;5073532;28;20254;-27
2024/01/31 13:53:28;;;;;;;10.48;5.00;;;;;;;;;;5072858;28;20305;-27
2024/01/31 13:55:53;;;;;;;8.97;4.70;;;;;;;;;;5073064;28;20091;-27
2024/01/31 13:58:19;;;;;;;10.37;4.57;;;;;;;;;;5072904;28;20255;-27
2024/01/31 14:00:44;;;;;;;10.70;5.15;;;;;;;;;;5073384;28;20247;-27
2024/01/31 14:03:09;;;;;;;12.27;4.73;;;;;;;;;;5072618;28;20051;-27
2024/01/31 14:05:34;;;;;;;10.03;4.70;;;;;;;;;;5073142;28;20722;-27
2024/01/31 14:07:59;;;;;;;8.60;4.68;;;;;;;;;;5074110;28;20279;-27
2024/01/31 14:10:24;;;;;;;10.52;4.45;;;;;;;;;;5076604;28;20099;-26
2024/01/31 14:12:50;;;;;;;7.87;4.60;;;;;;;;;;5076291;28;20066;-27
2024/01/31 14:15:15;;;;;;;12.30;4.40;;;;;;;;;;5076277;28;20255;-27
2024/01/31 14:17:40;;;;;;;11.20;4.03;;;;;;;;;;5077428;28;20255;-27
2024/01/31 14:20:05;;;;;;;15.17;4.40;;;;;;;;;;5076981;28;20100;-27
2024/01/31 14:22:34;;;;;;;11.45;3.90;;;;;;;;;;5076614;28;20336;-27
2024/01/31 14:24:59;;;;;;;7.03;3.88;;;;;;;;;;5076276;28;20013;-27
2024/01/31 14:27:24;;;;;;;7.17;3.70;;;;;;;;;;5076264;28;20096;-27
2024/01/31 14:29:49;;;;;;;7.63;4.00;;;;;;;;;;5076501;28;20278;-27